ilmateenistus.ee keskkonnaagentuur.ee
EETN Таллинн
FTEO31 EETN 211700
TAF EETN 211700Z 2118/2218 21013KT 9999 BKN015 TEMPO 2118/2206
    21017G30KT PROB40 TEMPO 2122/2202 BKN010 SCT020CB TEMPO 2202/2208
    3000 SHRA BKN005 SCT015CB BKN020 BECMG 2206/2208 27010KT SCT030=

METAR EETN 212250Z 21016G26KT 9999 OVC015 11/08 Q1012 =
Таллинн
EEKA Кярдла
METAR EEKA 212150Z NIL=
Кярдла
EEKE Курессааре
METAR EEKE 212250Z AUTO 23013KT ////NDV BKN012 12/10 Q1015=
Курессааре
EEPU Пярну
METAR EEPU 212150Z NIL=
Пярну
EETU Тарту
FCEO32 EETN 212000
TAF EETU 212000Z 2121/2203 21015KT 9999 SCT008 BECMG 2122/2124 BKN005
    SCT013CB PROB30 TEMPO 2200/2203 2000 BR=

METAR EETU 212250Z 22016KT 9999 SCT015 07/05 Q1017=
Тарту
EEEI Эмари
METAR EEEI 212250Z 19014KT 9999 OVC015 11/08 Q1013=
Эмари